CheckWX is a tool to help pilots better visualize weather data.  It is not intended as a substitute for an official pre-flight weather briefing.

03:16:32 UTC

EDVK METAR
Kassel-Calden Airport
Kassel, Germany
Current

27 mins ago

EDVK 270250Z 25005KT 9999 BKN037 OVC098 14/09 Q1008
Observed
May-27 @ 02:50 UTC
Wind
  • 250° at 5 KTS
Visibility
10,000+ meters
Flight Rules
VFR
Cloud Levels
  • Broken at 3,700' AGL
  • Overcast at 9,800' AGL
Temperature
14°C / 57°F
Dewpoint
C / 48°F
Humidity
72%
Altimeter
29.76" Hg
Pressure
1007.92 hPa
Previous

57 mins ago

EDVK 270220Z 25006KT 9999 BKN035 14/09 Q1008
Observed
May-27 @ 02:20 UTC
Wind
  • 250° at 6 KTS
Visibility
10,000+ meters
Flight Rules
VFR
Cloud Levels
  • Broken at 3,500' AGL
Temperature
14°C / 57°F
Dewpoint
C / 48°F
Humidity
72%
Altimeter
29.76" Hg
Pressure
1007.92 hPa
Previous

6 hours ago

EDVK 262050Z 23009KT CAVOK 17/09 Q1010
Observed
May-26 @ 20:50 UTC
Wind
  • 230° at 9 KTS
Visibility
10,000+ meters
Flight Rules
VFR
Cloud Levels
  • Clear skies
Temperature
17°C / 63°F
Dewpoint
C / 48°F
Humidity
59%
Altimeter
29.82" Hg
Pressure
1009.92 hPa